Time;durP1;ratioP1;P1;durP2;ratioP2;P2;SDS_P1;SDS_P2;PMS_P1;PMS_P2;Temp;Humidity;BMP_temperature;BMP_pressure;BME280_temperature;BME280_humidity;BME280_pressure;Samples;Min_cycle;Max_cycle;Signal;HPM_P1;HPM_P2
2022/06/17 00:02:10;;;;;;;2.67;2.10;;;18.20;98.00;;;;;;5030518;28;20965;-71
2022/06/17 00:04:40;;;;;;;3.00;2.17;;;18.00;98.00;;;;;;5031904;28;20458;-71
2022/06/17 00:07:14;;;;;;;2.37;1.93;;;18.00;98.00;;;;;;5031156;28;20469;-71
2022/06/17 00:09:42;;;;;;;3.10;2.03;;;18.00;98.00;;;;;;5031759;28;20470;-71
2022/06/17 00:12:13;;;;;;;4.10;2.03;;;18.00;98.00;;;;;;5031385;28;20455;-71
2022/06/17 00:17:21;;;;;;;1.77;1.77;;;18.00;98.00;;;;;;5031547;28;20821;-71
2022/06/17 00:19:49;;;;;;;2.33;1.90;;;17.60;98.00;;;;;;5030527;28;20489;-71
2022/06/17 00:22:18;;;;;;;3.93;2.00;;;17.70;98.00;;;;;;5031954;28;20455;-71
2022/06/17 00:24:46;;;;;;;3.20;2.03;;;17.60;98.00;;;;;;5031655;28;20827;-71
2022/06/17 00:27:14;;;;;;;3.37;2.33;;;17.40;98.00;;;;;;5031945;28;20454;-71
2022/06/17 00:29:41;;;;;;;2.83;2.03;;;17.40;98.00;;;;;;5031458;28;20957;-71
2022/06/17 00:32:09;;;;;;;4.53;2.50;;;17.50;98.00;;;;;;5031720;28;20466;-71
2022/06/17 00:34:36;;;;;;;3.97;1.93;;;17.30;98.00;;;;;;5031511;28;20481;-71
2022/06/17 00:37:06;;;;;;;2.87;2.10;;;17.30;98.00;;;;;;5033069;28;20455;-71
2022/06/17 00:39:36;;;;;;;2.60;2.10;;;17.30;98.00;;;;;;5035466;28;20849;-71
2022/06/17 00:42:08;;;;;;;1.93;1.80;;;17.30;98.00;;;;;;5035117;28;20856;-71
2022/06/17 00:44:41;;;;;;;3.20;2.10;;;17.30;98.00;;;;;;5035370;28;20473;-71
2022/06/17 00:47:18;;;;;;;2.83;2.00;;;17.10;98.00;;;;;;5034881;28;20458;-71
2022/06/17 00:49:50;;;;;;;2.23;1.53;;;17.00;98.00;;;;;;5035206;28;20454;-71
2022/06/17 00:52:23;;;;;;;2.67;2.10;;;17.00;98.00;;;;;;5034947;28;20466;-71
2022/06/17 00:54:57;;;;;;;2.77;1.87;;;17.00;98.00;;;;;;5034907;28;20462;-71
2022/06/17 00:57:29;;;;;;;2.20;2.07;;;16.90;98.00;;;;;;5034974;28;20454;-71
2022/06/17 01:00:12;;;;;;;3.80;2.27;;;16.70;98.00;;;;;;5034746;28;20497;-71
2022/06/17 01:02:42;;;;;;;3.23;1.70;;;16.50;98.00;;;;;;5034963;28;20957;-71
2022/06/17 01:05:11;;;;;;;3.80;2.10;;;16.50;98.00;;;;;;5034875;28;20459;-71
2022/06/17 01:07:41;;;;;;;4.07;2.40;;;16.40;98.00;;;;;;5034870;28;20804;-71
2022/06/17 01:10:13;;;;;;;2.37;1.80;;;16.30;98.00;;;;;;5033368;28;20458;-71
2022/06/17 01:12:48;;;;;;;4.27;2.27;;;16.30;98.00;;;;;;5034804;28;20462;-71
2022/06/17 01:15:18;;;;;;;3.30;2.13;;;16.40;98.00;;;;;;5033350;28;20473;-71
2022/06/17 01:17:49;;;;;;;3.10;2.03;;;16.50;98.00;;;;;;5034820;28;20455;-71
2022/06/17 01:20:17;;;;;;;2.50;1.73;;;16.50;98.00;;;;;;5033405;28;20557;-71
2022/06/17 01:22:49;;;;;;;2.47;1.93;;;16.50;98.00;;;;;;5034708;28;20938;-71
2022/06/17 01:25:20;;;;;;;2.43;2.00;;;16.50;98.00;;;;;;5034669;28;20890;-71
2022/06/17 01:27:49;;;;;;;2.53;1.80;;;16.60;98.00;;;;;;5034601;28;20944;-71
2022/06/17 01:30:21;;;;;;;2.73;2.07;;;16.60;98.00;;;;;;5034443;28;20454;-71
2022/06/17 01:33:00;;;;;;;5.13;2.20;;;16.50;98.00;;;;;;5034429;28;20890;-71
2022/06/17 01:35:33;;;;;;;2.70;2.03;;;16.50;98.00;;;;;;5034190;28;20976;-71
2022/06/17 01:38:02;;;;;;;2.73;2.07;;;16.40;98.00;;;;;;5034190;28;20451;-71
2022/06/17 01:40:29;;;;;;;2.97;1.83;;;16.30;98.00;;;;;;5033993;28;20486;-71
2022/06/17 01:43:01;;;;;;;5.10;2.20;;;16.40;98.00;;;;;;5034006;28;20811;-71
2022/06/17 01:45:28;;;;;;;2.80;2.10;;;16.40;98.00;;;;;;5032823;28;20470;-71
2022/06/17 01:47:55;;;;;;;3.23;1.90;;;16.20;98.00;;;;;;5033926;28;20462;-71
2022/06/17 01:50:26;;;;;;;3.37;2.07;;;16.30;98.00;;;;;;5034143;28;20458;-71
2022/06/17 01:52:59;;;;;;;5.53;2.10;;;16.30;98.00;;;;;;5034017;28;20463;-71
2022/06/17 01:55:31;;;;;;;2.47;2.03;;;16.20;98.00;;;;;;5033744;28;20459;-71
2022/06/17 01:58:04;;;;;;;3.80;1.80;;;16.30;98.00;;;;;;5033823;28;20458;-71
2022/06/17 02:00:33;;;;;;;2.30;1.73;;;16.30;98.00;;;;;;5032493;28;20497;-71
2022/06/17 02:03:05;;;;;;;3.00;1.57;;;16.20;98.00;;;;;;5033706;28;20451;-70
2022/06/17 02:05:35;;;;;;;3.23;1.90;;;16.20;98.00;;;;;;5033688;28;20469;-71
2022/06/17 02:08:05;;;;;;;2.17;1.70;;;16.20;98.00;;;;;;5032842;28;20537;-70
2022/06/17 02:10:37;;;;;;;2.40;1.50;;;16.10;98.00;;;;;;5032900;28;20451;-71
2022/06/17 02:13:06;;;;;;;2.70;1.93;;;16.20;98.00;;;;;;5031639;28;20467;-70
2022/06/17 02:15:35;;;;;;;2.77;1.93;;;16.20;98.00;;;;;;5032809;28;20458;-71
2022/06/17 02:18:04;;;;;;;2.23;1.80;;;16.00;98.00;;;;;;5032746;28;20937;-70
2022/06/17 02:20:32;;;;;;;2.80;2.13;;;15.80;98.00;;;;;;5032823;28;20494;-71
2022/06/17 02:23:00;;;;;;;3.30;2.07;;;15.70;98.00;;;;;;5032676;28;20820;-71
2022/06/17 02:25:30;;;;;;;2.77;1.90;;;15.50;98.00;;;;;;5033308;28;20458;-71
2022/06/17 02:28:01;;;;;;;2.00;1.63;;;15.40;98.00;;;;;;5033286;28;20463;-71
2022/06/17 02:30:29;;;;;;;2.43;1.50;;;15.50;98.00;;;;;;5033160;28;20795;-71
2022/06/17 02:32:59;;;;;;;2.93;2.07;;;15.70;98.00;;;;;;5033242;28;20808;-71
2022/06/17 02:35:35;;;;;;;3.63;1.77;;;15.70;98.00;;;;;;5031863;28;20525;-71
2022/06/17 02:38:02;;;;;;;2.10;1.80;;;15.60;98.00;;;;;;5032933;28;20469;-71
2022/06/17 02:40:33;;;;;;;1.70;1.50;;;15.40;98.00;;;;;;5032827;28;20482;-71
2022/06/17 02:43:07;;;;;;;3.07;2.00;;;15.40;98.00;;;;;;5031709;28;20462;-70
2022/06/17 02:45:41;;;;;;;3.00;2.07;;;15.40;98.00;;;;;;5031595;28;20500;-71
2022/06/17 02:48:18;;;;;;;3.20;2.03;;;15.30;98.00;;;;;;5032650;28;20463;-71
2022/06/17 02:50:46;;;;;;;3.17;2.00;;;15.40;98.00;;;;;;5032614;28;20458;-70
2022/06/17 02:53:14;;;;;;;4.10;2.23;;;15.30;98.00;;;;;;5032790;28;20930;-71
2022/06/17 02:55:43;;;;;;;2.53;1.73;;;15.20;98.00;;;;;;5031597;28;20458;-70
2022/06/17 02:58:21;;;;;;;2.47;1.63;;;15.30;98.00;;;;;;5032753;28;20451;-70
2022/06/17 03:00:52;;;;;;;2.50;1.57;;;15.40;98.00;;;;;;5032062;28;20494;-71
2022/06/17 03:03:21;;;;;;;2.70;1.80;;;15.40;98.00;;;;;;5032851;28;20779;-70
2022/06/17 03:05:48;;;;;;;2.60;1.77;;;15.30;98.00;;;;;;5032741;28;20450;-70
2022/06/17 03:08:20;;;;;;;4.40;1.90;;;15.10;98.00;;;;;;5032486;28;20459;-71
2022/06/17 03:10:49;;;;;;;2.90;1.97;;;15.00;98.00;;;;;;5032474;28;20451;-71
2022/06/17 03:13:24;;;;;;;3.20;2.00;;;14.90;98.00;;;;;;5031180;28;20956;-71
2022/06/17 03:15:56;;;;;;;2.40;1.80;;;14.90;98.00;;;;;;5032277;28;20964;-71
2022/06/17 03:18:24;;;;;;;2.90;1.83;;;14.90;98.00;;;;;;5031361;28;20451;-70
2022/06/17 03:20:52;;;;;;;2.33;1.77;;;14.90;98.00;;;;;;5032259;28;20482;-71
2022/06/17 03:23:24;;;;;;;3.93;1.93;;;14.90;98.00;;;;;;5032547;28;20458;-70
2022/06/17 03:25:57;;;;;;;2.33;1.67;;;15.10;98.00;;;;;;5032581;28;20458;-71
2022/06/17 03:28:34;;;;;;;2.60;2.20;;;15.00;98.00;;;;;;5032637;28;20451;-71
2022/06/17 03:31:07;;;;;;;2.20;2.00;;;15.10;98.00;;;;;;5031830;28;20484;-71
2022/06/17 03:33:39;;;;;;;1.70;1.53;;;15.10;98.00;;;;;;5032413;28;20921;-71
2022/06/17 03:36:13;;;;;;;4.20;1.90;;;15.20;98.00;;;;;;5031902;28;20458;-71
2022/06/17 03:38:45;;;;;;;3.30;2.40;;;15.30;98.00;;;;;;5031955;28;20811;-71
2022/06/17 03:41:19;;;;;;;4.30;1.97;;;15.20;98.00;;;;;;5030665;28;20491;-70
2022/06/17 03:43:52;;;;;;;2.83;1.67;;;15.10;98.00;;;;;;5031900;28;20461;-70
2022/06/17 03:46:23;;;;;;;1.70;1.60;;;14.90;98.00;;;;;;5030475;28;20450;-71
2022/06/17 03:48:56;;;;;;;1.80;1.30;;;15.00;98.00;;;;;;5031948;28;20458;-70
2022/06/17 03:51:25;;;;;;;3.20;2.03;;;15.10;98.00;;;;;;5031697;28;20466;-71
2022/06/17 03:53:53;;;;;;;1.30;1.30;;;15.30;98.00;;;;;;5031873;28;20860;-70
2022/06/17 03:56:23;;;;;;;3.30;2.03;;;15.10;98.00;;;;;;5031828;28;20974;-71
2022/06/17 03:58:54;;;;;;;2.53;1.90;;;15.10;98.00;;;;;;5031814;28;20952;-70
2022/06/17 04:01:29;;;;;;;2.77;1.87;;;15.30;98.00;;;;;;5031857;28;20492;-70
2022/06/17 04:03:59;;;;;;;2.43;1.80;;;15.60;98.00;;;;;;5031892;28;20476;-71
2022/06/17 04:06:30;;;;;;;2.80;1.90;;;15.60;98.00;;;;;;5030802;28;20477;-71
2022/06/17 04:08:59;;;;;;;4.80;2.07;;;15.50;98.00;;;;;;5031710;28;20463;-71
2022/06/17 04:11:29;;;;;;;1.97;1.87;;;15.40;98.00;;;;;;5031351;28;20459;-71
2022/06/17 04:14:01;;;;;;;3.50;1.90;;;15.20;98.00;;;;;;5036018;28;20929;-70
2022/06/17 04:16:36;;;;;;;2.83;1.90;;;15.00;98.00;;;;;;5035815;28;20466;-71
2022/06/17 04:19:12;;;;;;;2.63;2.03;;;15.00;98.00;;;;;;5036003;28;20466;-70
2022/06/17 04:21:39;;;;;;;2.23;1.77;;;14.90;98.00;;;;;;5035721;28;20458;-70
2022/06/17 04:24:13;;;;;;;1.83;1.57;;;14.90;98.00;;;;;;5035798;28;20465;-70
2022/06/17 04:26:41;;;;;;;5.80;2.20;;;14.90;98.00;;;;;;5034411;28;20470;-70
2022/06/17 04:29:15;;;;;;;3.10;2.20;;;14.90;98.00;;;;;;5035640;28;20467;-70
2022/06/17 04:31:43;;;;;;;4.50;2.03;;;15.00;98.00;;;;;;5035197;28;20454;-70
2022/06/17 04:34:14;;;;;;;3.00;1.83;;;15.00;98.00;;;;;;5035494;28;20459;-70
2022/06/17 04:36:45;;;;;;;1.90;1.67;;;15.10;98.00;;;;;;5035040;28;20461;-70
2022/06/17 04:39:22;;;;;;;2.83;2.03;;;15.20;98.00;;;;;;5035235;28;20454;-70
2022/06/17 04:41:53;;;;;;;1.60;1.50;;;15.20;98.00;;;;;;5035082;28;20450;-70
2022/06/17 04:44:22;;;;;;;3.67;1.73;;;15.30;98.00;;;;;;5034986;28;20461;-71
2022/06/17 04:46:54;;;;;;;2.37;1.80;;;15.40;98.00;;;;;;5034940;28;20457;-70
2022/06/17 04:49:26;;;;;;;3.03;1.80;;;15.30;98.00;;;;;;5035071;28;20971;-70
2022/06/17 04:52:01;;;;;;;2.60;1.83;;;15.40;98.00;;;;;;5034738;28;20466;-70
2022/06/17 04:54:30;;;;;;;1.90;1.60;;;15.40;98.00;;;;;;5035181;28;20825;-71
2022/06/17 04:56:59;;;;;;;2.57;2.00;;;15.50;98.00;;;;;;5034902;28;20454;-70
2022/06/17 04:59:36;;;;;;;2.80;1.63;;;15.70;98.00;;;;;;5034425;28;20485;-71
2022/06/17 05:02:11;;;;;;;2.97;1.93;;;16.00;98.00;;;;;;5034853;28;20454;-71
2022/06/17 05:04:38;;;;;;;2.23;1.83;;;16.10;98.00;;;;;;5034892;28;20461;-70
2022/06/17 05:07:06;;;;;;;2.23;1.63;;;16.30;98.00;;;;;;5034795;28;20474;-70
2022/06/17 05:09:42;;;;;;;3.50;2.17;;;16.60;98.00;;;;;;5034694;28;20462;-70
2022/06/17 05:12:19;;;;;;;2.80;1.97;;;16.60;98.00;;;;;;5034868;28;20945;-71
2022/06/17 05:14:52;;;;;;;5.40;2.40;;;16.70;98.00;;;;;;5033754;28;20454;-70
2022/06/17 05:17:38;;;;;;;2.83;2.30;;;16.80;98.00;;;;;;5034815;28;20457;-70
2022/06/17 05:20:06;;;;;;;4.00;2.67;;;16.80;98.00;;;;;;5034241;28;20493;-70
2022/06/17 05:22:37;;;;;;;3.17;1.97;;;16.90;98.00;;;;;;5032968;28;20462;-70
2022/06/17 05:25:07;;;;;;;3.67;2.20;;;16.90;98.00;;;;;;5034917;28;20467;-70
2022/06/17 05:27:35;;;;;;;3.07;2.10;;;17.00;98.00;;;;;;5034351;28;20463;-71
2022/06/17 05:30:03;;;;;;;4.07;2.37;;;16.90;98.00;;;;;;5034529;28;20456;-71
2022/06/17 05:32:31;;;;;;;3.50;2.40;;;17.00;98.00;;;;;;5034142;28;21283;-70
2022/06/17 05:34:59;;;;;;;2.23;1.53;;;17.00;98.00;;;;;;5034152;28;20942;-71
2022/06/17 05:37:26;;;;;;;3.33;2.20;;;17.10;98.00;;;;;;5034013;28;20478;-70
2022/06/17 05:39:54;;;;;;;2.90;2.10;;;17.20;98.00;;;;;;5033591;28;20451;-70
2022/06/17 05:42:22;;;;;;;2.47;1.90;;;17.30;98.00;;;;;;5033463;28;20454;-71
2022/06/17 05:44:49;;;;;;;3.13;2.10;;;17.30;98.00;;;;;;5033472;28;20862;-71
2022/06/17 05:47:18;;;;;;;3.00;2.30;;;17.30;98.00;;;;;;5033136;28;20465;-70
2022/06/17 05:49:45;;;;;;;2.67;1.90;;;17.20;98.00;;;;;;5033319;28;20459;-70
2022/06/17 05:52:12;;;;;;;3.23;2.10;;;17.20;98.00;;;;;;5032948;28;20463;-70
2022/06/17 05:54:39;;;;;;;3.00;2.23;;;17.30;98.00;;;;;;5033313;28;20504;-72
2022/06/17 05:57:07;;;;;;;2.73;2.20;;;17.30;98.00;;;;;;5031668;28;20458;-72
2022/06/17 05:59:34;;;;;;;2.80;2.00;;;17.50;98.00;;;;;;5033087;28;20465;-72
2022/06/17 06:02:01;;;;;;;3.67;2.20;;;17.60;98.00;;;;;;5032799;28;21005;-72
2022/06/17 06:04:31;;;;;;;2.67;2.07;;;17.70;98.00;;;;;;5031860;28;20450;-71
2022/06/17 06:06:59;;;;;;;3.27;2.20;;;17.80;98.00;;;;;;5032852;28;20942;-66
2022/06/17 06:09:27;;;;;;;3.40;2.10;;;18.00;98.00;;;;;;5032914;28;20847;-66
2022/06/17 06:11:54;;;;;;;5.50;2.23;;;18.20;98.00;;;;;;5032810;28;20827;-66
2022/06/17 06:14:21;;;;;;;3.07;2.30;;;18.20;98.00;;;;;;5032707;28;20463;-66
2022/06/17 06:16:54;;;;;;;2.20;1.90;;;18.50;98.00;;;;;;5032590;28;20463;-66
2022/06/17 06:19:21;;;;;;;4.13;2.17;;;18.80;98.00;;;;;;5032574;28;20832;-66
2022/06/17 06:21:50;;;;;;;3.83;2.10;;;19.10;98.00;;;;;;5032721;28;20482;-66
2022/06/17 06:24:18;;;;;;;4.93;2.70;;;19.40;98.00;;;;;;5032659;28;20477;-66
2022/06/17 06:26:45;;;;;;;3.33;2.23;;;19.60;98.00;;;;;;5032498;28;20537;-66
2022/06/17 06:29:13;;;;;;;2.33;1.63;;;19.80;98.00;;;;;;5032775;28;20460;-66
2022/06/17 06:31:40;;;;;;;3.13;2.27;;;19.90;98.00;;;;;;5032619;28;20529;-66
2022/06/17 06:34:10;;;;;;;3.07;2.10;;;20.10;98.00;;;;;;5031591;28;20468;-66
2022/06/17 06:36:37;;;;;;;2.47;2.00;;;20.20;98.00;;;;;;5032329;28;20973;-66
2022/06/17 06:39:06;;;;;;;3.40;1.80;;;20.30;98.00;;;;;;5032343;28;20462;-66
2022/06/17 06:41:33;;;;;;;3.40;2.40;;;20.50;98.00;;;;;;5032182;28;20482;-66
2022/06/17 06:44:00;;;;;;;2.93;2.30;;;20.60;98.00;;;;;;5032251;28;20517;-66
2022/06/17 06:46:29;;;;;;;2.97;2.07;;;20.60;98.00;;;;;;5032185;28;20472;-66
2022/06/17 06:48:56;;;;;;;2.87;2.13;;;20.80;97.80;;;;;;5031748;28;20466;-66
2022/06/17 06:51:23;;;;;;;3.77;2.33;;;20.90;97.60;;;;;;5030776;28;20524;-66
2022/06/17 06:53:51;;;;;;;4.20;2.53;;;21.00;96.90;;;;;;5031072;28;20458;-66
2022/06/17 06:56:20;;;;;;;4.47;2.50;;;21.10;96.90;;;;;;5009310;28;20456;-66
2022/06/17 06:58:47;;;;;;;4.30;2.60;;;21.20;95.90;;;;;;5009549;28;20510;-67
2022/06/17 07:01:14;;;;;;;5.83;2.40;;;21.30;95.50;;;;;;5009858;28;20496;-66
2022/06/17 07:03:42;;;;;;;5.57;2.60;;;21.40;94.80;;;;;;5009807;28;20460;-66
2022/06/17 07:06:09;;;;;;;3.77;2.10;;;21.50;93.90;;;;;;5009682;28;20459;-66
2022/06/17 07:08:37;;;;;;;3.07;2.10;;;21.60;95.10;;;;;;5009347;28;20514;-65
2022/06/17 07:11:07;;;;;;;4.10;2.27;;;21.70;94.10;;;;;;5009445;28;20951;-65
2022/06/17 07:13:36;;;;;;;2.83;2.33;;;21.90;94.20;;;;;;5009377;28;20854;-67
2022/06/17 07:16:06;;;;;;;2.17;1.87;;;22.00;93.50;;;;;;5009546;28;20468;-67
2022/06/17 07:18:35;;;;;;;2.80;2.10;;;22.00;92.90;;;;;;5009072;28;20460;-72
2022/06/17 07:21:03;;;;;;;4.70;2.83;;;22.00;93.20;;;;;;5008024;28;20483;-72
2022/06/17 07:23:33;;;;;;;3.73;2.30;;;22.00;92.30;;;;;;5008412;28;20468;-72
2022/06/17 07:26:05;;;;;;;2.73;2.03;;;21.90;91.50;;;;;;5009469;28;20891;-72
2022/06/17 07:28:33;;;;;;;3.50;2.23;;;21.90;92.20;;;;;;5009416;28;20460;-72
2022/06/17 07:31:01;;;;;;;3.90;2.70;;;21.90;92.20;;;;;;5009552;28;20486;-73
2022/06/17 07:33:30;;;;;;;3.20;2.40;;;21.90;92.50;;;;;;5009233;28;20478;-72
2022/06/17 07:36:01;;;;;;;2.90;2.23;;;21.90;91.90;;;;;;5009122;28;20466;-72
2022/06/17 07:41:19;;;;;;;3.23;2.30;;;22.00;91.60;;;;;;5008806;28;20498;-72
2022/06/17 07:43:46;;;;;;;2.80;2.33;;;22.00;91.20;;;;;;5007653;28;20483;-71
2022/06/17 07:46:15;;;;;;;3.30;2.50;;;22.00;90.90;;;;;;5008477;28;20456;-71
2022/06/17 07:48:42;;;;;;;3.13;2.37;;;21.90;91.20;;;;;;5008746;28;20455;-71
2022/06/17 07:51:10;;;;;;;6.97;2.83;;;21.80;91.40;;;;;;5006201;28;20472;-71
2022/06/17 07:53:41;;;;;;;3.37;2.50;;;21.80;92.60;;;;;;5007375;28;20447;-72
2022/06/17 07:56:10;;;;;;;6.17;2.97;;;21.80;94.20;;;;;;5007592;28;20467;-72
2022/06/17 07:58:39;;;;;;;3.83;2.73;;;22.10;93.90;;;;;;5008506;28;20990;-71
2022/06/17 08:01:07;;;;;;;6.80;2.23;;;22.20;91.50;;;;;;4990892;28;20492;-71
2022/06/17 08:03:38;;;;;;;3.47;2.50;;;22.40;92.60;;;;;;5007707;28;20542;-71
2022/06/17 08:06:05;;;;;;;2.93;2.13;;;22.50;91.30;;;;;;5008556;28;20455;-72
2022/06/17 08:08:34;;;;;;;4.00;2.80;;;22.60;90.50;;;;;;5008798;28;20835;-71
2022/06/17 08:11:02;;;;;;;3.27;2.30;;;22.70;90.60;;;;;;5008256;28;20490;-72
2022/06/17 08:13:30;;;;;;;5.77;2.80;;;22.70;90.30;;;;;;5008386;28;20464;-71
2022/06/17 08:15:59;;;;;;;2.60;2.00;;;22.80;90.90;;;;;;5008521;28;20834;-72
2022/06/17 08:18:27;;;;;;;5.30;2.47;;;22.90;88.90;;;;;;5008635;28;20463;-71
2022/06/17 08:20:55;;;;;;;4.77;2.73;;;22.80;90.20;;;;;;5008656;28;20495;-72
2022/06/17 08:23:22;;;;;;;3.97;2.27;;;22.80;90.60;;;;;;5008482;28;20471;-70
2022/06/17 08:25:50;;;;;;;3.30;2.10;;;22.90;90.20;;;;;;5008848;28;20463;-72
2022/06/17 08:28:18;;;;;;;4.93;2.80;;;23.10;90.50;;;;;;5008482;28;20457;-71
2022/06/17 08:30:47;;;;;;;4.50;2.50;;;23.10;90.40;;;;;;5008604;28;20502;-72
2022/06/17 08:33:15;;;;;;;4.33;2.50;;;23.30;90.80;;;;;;5009386;28;20458;-71
2022/06/17 08:35:45;;;;;;;3.53;2.50;;;23.40;87.80;;;;;;5008704;28;20456;-73
2022/06/17 08:38:17;;;;;;;3.20;2.23;;;23.60;88.80;;;;;;5009060;28;20934;-71
2022/06/17 08:40:55;;;;;;;2.63;2.03;;;23.70;88.80;;;;;;5008809;28;20551;-71
2022/06/17 08:43:45;;;;;;;4.60;2.87;;;23.80;86.70;;;;;;5009109;28;20486;-71
2022/06/17 08:46:18;;;;;;;4.27;2.60;;;23.80;85.00;;;;;;5008620;28;20474;-73
2022/06/17 08:49:10;;;;;;;4.20;2.47;;;23.80;83.90;;;;;;5008917;28;20459;-72
2022/06/17 08:51:54;;;;;;;3.30;2.40;;;23.70;83.80;;;;;;5007214;28;20472;-72
2022/06/17 08:54:39;;;;;;;5.50;2.80;;;23.80;85.30;;;;;;5007256;28;20472;-72
2022/06/17 08:57:14;;;;;;;5.87;3.20;;;23.80;84.10;;;;;;5008680;28;20452;-73
2022/06/17 09:00:04;;;;;;;3.60;2.47;;;23.70;85.90;;;;;;5011616;28;20463;-72
2022/06/17 09:02:41;;;;;;;3.43;2.13;;;23.90;84.70;;;;;;5004247;28;20502;-72
2022/06/17 09:05:22;;;;;;;3.67;2.37;;;24.10;82.60;;;;;;5012447;28;20471;-72
2022/06/17 09:08:00;;;;;;;3.70;2.67;;;24.10;82.90;;;;;;5011063;28;20459;-72
2022/06/17 09:10:38;;;;;;;4.27;2.80;;;24.10;82.70;;;;;;5011964;28;20475;-75
2022/06/17 09:13:20;;;;;;;3.97;2.37;;;24.20;84.70;;;;;;5011202;28;20464;-75
2022/06/17 09:15:57;;;;;;;4.40;2.40;;;24.30;82.80;;;;;;5009645;28;20840;-71
2022/06/17 09:18:29;;;;;;;6.27;2.50;;;24.20;80.10;;;;;;5011668;28;20550;-73
2022/06/17 09:21:01;;;;;;;4.07;2.40;;;24.30;81.70;;;;;;5011439;28;20526;-74
2022/06/17 09:23:34;;;;;;;3.70;2.23;;;24.50;81.00;;;;;;5011616;28;20467;-67
2022/06/17 09:26:05;;;;;;;2.60;2.00;;;24.70;81.30;;;;;;5011327;28;20540;-65
2022/06/17 09:28:38;;;;;;;2.90;2.30;;;24.80;81.70;;;;;;5011097;28;20530;-66
2022/06/17 09:31:12;;;;;;;2.93;2.07;;;25.10;80.20;;;;;;5011254;28;20455;-67
2022/06/17 09:33:47;;;;;;;4.30;2.57;;;25.30;77.80;;;;;;5011491;28;20475;-65
2022/06/17 09:36:17;;;;;;;1.70;1.50;;;25.40;78.50;;;;;;5011075;28;20486;-65
2022/06/17 09:38:50;;;;;;;4.30;2.30;;;25.60;78.50;;;;;;5011042;28;20491;-66
2022/06/17 09:41:24;;;;;;;3.17;2.40;;;25.70;76.20;;;;;;5009533;28;20490;-66
2022/06/17 09:43:57;;;;;;;3.50;2.20;;;25.70;76.30;;;;;;5010281;28;20463;-66
2022/06/17 09:46:28;;;;;;;3.50;2.10;;;25.70;78.40;;;;;;5011201;28;20815;-66
2022/06/17 09:49:01;;;;;;;3.80;2.20;;;25.70;78.40;;;;;;5010744;28;20456;-67
2022/06/17 09:51:36;;;;;;;5.83;2.27;;;25.90;79.60;;;;;;5008491;28;20984;-66
2022/06/17 09:54:11;;;;;;;3.90;2.43;;;26.00;76.90;;;;;;5008852;28;20470;-66
2022/06/17 09:56:46;;;;;;;5.50;2.47;;;26.10;78.20;;;;;;5010713;28;21000;-66
2022/06/17 09:59:20;;;;;;;2.73;2.23;;;26.30;78.50;;;;;;5011002;28;20454;-67
2022/06/17 10:01:47;;;;;;;4.40;2.13;;;26.40;76.20;;;;;;5002179;28;20483;-66
2022/06/17 10:04:17;;;;;;;3.63;2.30;;;26.60;78.00;;;;;;5010448;28;20459;-67
2022/06/17 10:06:55;;;;;;;4.60;2.43;;;26.70;79.00;;;;;;5010428;28;20471;-68
2022/06/17 10:09:36;;;;;;;3.10;2.30;;;26.70;76.90;;;;;;5009194;28;20455;-67
2022/06/17 10:12:13;;;;;;;3.27;2.40;;;26.80;77.40;;;;;;5009733;28;21065;-67
2022/06/17 10:14:51;;;;;;;3.13;2.30;;;26.90;76.50;;;;;;5010202;28;20460;-66
2022/06/17 10:20:20;;;;;;;3.27;2.23;;;27.10;76.30;;;;;;5010339;28;20434;-66
2022/06/17 10:23:04;;;;;;;4.47;2.67;;;27.10;73.90;;;;;;5002006;28;20542;-69
2022/06/17 10:25:42;;;;;;;2.43;2.20;;;27.00;72.00;;;;;;5009918;28;20522;-68
2022/06/17 10:28:23;;;;;;;3.27;2.17;;;27.00;72.30;;;;;;5009822;28;20455;-66
2022/06/17 10:30:58;;;;;;;2.90;2.10;;;27.10;73.90;;;;;;5009632;28;20460;-67
2022/06/17 10:33:28;;;;;;;5.40;2.73;;;27.20;73.60;;;;;;5010305;28;20542;-67
2022/06/17 10:35:55;;;;;;;2.50;2.13;;;27.30;77.30;;;;;;5009786;28;20529;-68
2022/06/17 10:38:28;;;;;;;3.13;2.40;;;27.50;75.40;;;;;;5009999;28;20458;-67
2022/06/17 10:40:55;;;;;;;2.70;2.13;;;27.60;73.20;;;;;;5009393;28;20455;-66
2022/06/17 10:43:31;;;;;;;3.70;2.50;;;27.70;73.60;;;;;;5009534;28;20503;-67
2022/06/17 10:45:58;;;;;;;2.47;1.87;;;27.80;73.70;;;;;;5009379;28;20459;-65
2022/06/17 10:48:33;;;;;;;2.93;1.80;;;27.90;72.60;;;;;;5009525;28;20463;-66
2022/06/17 10:51:03;;;;;;;3.03;1.93;;;28.00;68.90;;;;;;5006533;28;20475;-65
2022/06/17 10:53:36;;;;;;;2.37;2.03;;;27.90;69.70;;;;;;5009497;28;20459;-66
2022/06/17 10:56:09;;;;;;;2.73;2.13;;;28.00;70.40;;;;;;5009295;28;20995;-66
2022/06/17 10:58:40;;;;;;;4.00;2.50;;;28.00;69.80;;;;;;5009446;28;20451;-67
2022/06/17 11:01:11;;;;;;;2.90;2.07;;;28.10;71.90;;;;;;5001443;28;20455;-67
2022/06/17 11:03:40;;;;;;;7.20;2.00;;;28.10;68.50;;;;;;5009336;28;20495;-66
2022/06/17 11:06:16;;;;;;;2.83;2.00;;;28.30;72.00;;;;;;5009221;28;20962;-66
2022/06/17 11:08:53;;;;;;;2.77;2.00;;;28.30;68.00;;;;;;5009221;28;20475;-67
2022/06/17 11:14:21;;;;;;;3.27;2.30;;;28.70;70.30;;;;;;5009260;28;20451;-66
2022/06/17 11:16:48;;;;;;;5.43;2.30;;;28.80;68.10;;;;;;5008978;28;20466;-67
2022/06/17 11:19:20;;;;;;;2.70;2.07;;;29.00;66.00;;;;;;5009055;28;20452;-66
2022/06/17 11:21:51;;;;;;;3.40;2.33;;;29.20;67.10;;;;;;5007507;28;20506;-66
2022/06/17 11:24:24;;;;;;;2.60;2.00;;;29.40;64.00;;;;;;5009041;28;21036;-68
2022/06/17 11:27:06;;;;;;;2.90;2.00;;;29.50;68.30;;;;;;5007906;28;20460;-67
2022/06/17 11:29:40;;;;;;;3.00;2.33;;;29.80;66.20;;;;;;5009173;28;20467;-66
2022/06/17 11:32:27;;;;;;;2.30;1.97;;;30.00;64.00;;;;;;5008924;28;20463;-67
2022/06/17 11:34:57;;;;;;;2.87;1.67;;;29.90;65.10;;;;;;5008980;28;20546;-66
2022/06/17 11:37:27;;;;;;;2.13;2.00;;;29.70;63.20;;;;;;5008913;28;20456;-66
2022/06/17 11:40:20;;;;;;;3.10;2.13;;;29.90;64.30;;;;;;5008556;28;20558;-65
2022/06/17 11:42:51;;;;;;;2.33;2.13;;;30.00;63.30;;;;;;4988218;28;20491;-66
2022/06/17 11:45:23;;;;;;;2.27;1.93;;;30.40;65.50;;;;;;5008815;28;20959;-66
2022/06/17 11:47:57;;;;;;;3.00;2.10;;;30.10;62.80;;;;;;5009044;28;20471;-66
2022/06/17 11:50:30;;;;;;;2.40;1.83;;;30.50;62.60;;;;;;5006354;28;20458;-66
2022/06/17 11:53:04;;;;;;;2.90;2.33;;;30.70;63.20;;;;;;5008357;28;20989;-68
2022/06/17 11:55:34;;;;;;;2.20;1.80;;;30.60;60.80;;;;;;5008641;28;20550;-66
2022/06/17 11:58:01;;;;;;;2.13;1.90;;;31.00;63.00;;;;;;5008323;28;20490;-66
2022/06/17 12:00:46;;;;;;;2.87;2.10;;;31.00;61.30;;;;;;5008624;28;20474;-66
2022/06/17 12:03:15;;;;;;;2.50;2.00;;;31.40;62.10;;;;;;5008472;28;20531;-66
2022/06/17 12:05:43;;;;;;;2.57;1.83;;;31.40;59.50;;;;;;5006867;28;20560;-66
2022/06/17 12:08:18;;;;;;;2.17;1.77;;;31.70;61.80;;;;;;5008465;28;20478;-67
2022/06/17 12:10:49;;;;;;;2.53;1.80;;;31.90;60.30;;;;;;5008493;28;20459;-66
2022/06/17 12:13:24;;;;;;;4.37;2.30;;;32.10;59.00;;;;;;5008692;28;20451;-66
2022/06/17 12:15:58;;;;;;;2.73;1.70;;;32.20;56.50;;;;;;5008430;28;20525;-67
2022/06/17 12:18:28;;;;;;;2.03;1.80;;;32.20;57.70;;;;;;5008602;28;20460;-66
2022/06/17 12:21:20;;;;;;;3.23;2.00;;;32.50;55.70;;;;;;5007986;28;20542;-65
2022/06/17 12:23:52;;;;;;;2.50;1.83;;;32.50;57.00;;;;;;5007335;28;20495;-66
2022/06/17 12:26:23;;;;;;;2.33;1.90;;;32.50;56.70;;;;;;5008227;28;20463;-67
2022/06/17 12:29:01;;;;;;;2.30;2.10;;;32.60;56.50;;;;;;5008227;28;20460;-66
2022/06/17 12:31:37;;;;;;;1.60;1.60;;;32.60;57.20;;;;;;5008629;28;20941;-66
2022/06/17 12:34:22;;;;;;;2.43;2.10;;;32.60;58.30;;;;;;5011983;28;20462;-66
2022/06/17 12:36:53;;;;;;;2.20;1.90;;;32.60;58.10;;;;;;5011268;28;20452;-66
2022/06/17 12:39:28;;;;;;;3.07;2.07;;;32.70;55.80;;;;;;5012625;28;20463;-67
2022/06/17 12:42:02;;;;;;;1.93;1.80;;;32.60;54.50;;;;;;5011781;28;20528;-66
2022/06/17 12:44:41;;;;;;;2.17;1.80;;;32.70;57.50;;;;;;5010791;28;20495;-66
2022/06/17 12:47:17;;;;;;;2.53;1.90;;;32.90;54.50;;;;;;5012503;28;20481;-66
2022/06/17 12:55:49;;;;;;;4.77;1.80;;;33.50;54.10;;;;;;5012235;28;20992;-66
2022/06/17 12:58:29;;;;;;;2.33;2.00;;;33.30;53.90;;;;;;5010924;28;20891;-68
2022/06/17 13:01:00;;;;;;;2.23;2.03;;;33.50;51.90;;;;;;5011836;28;20525;-68
2022/06/17 13:04:11;;;;;;;1.70;1.70;;;33.30;54.70;;;;;;5011927;28;20499;-67
2022/06/17 13:06:50;;;;;;;2.30;2.10;;;33.60;55.70;;;;;;5011649;28;20459;-67
2022/06/17 13:09:25;;;;;;;2.13;1.90;;;33.80;55.30;;;;;;5011877;28;20472;-67
2022/06/17 13:12:06;;;;;;;1.73;1.60;;;33.80;51.00;;;;;;5011940;28;20455;-67
2022/06/17 13:14:42;;;;;;;1.73;1.50;;;34.00;52.40;;;;;;5003674;28;20459;-66
2022/06/17 13:17:17;;;;;;;2.00;1.60;;;34.00;51.90;;;;;;5011223;28;20529;-67
2022/06/17 13:19:53;;;;;;;1.93;1.60;;;34.10;45.80;;;;;;5011533;28;20478;-67
2022/06/17 13:22:27;;;;;;;1.80;1.67;;;33.80;46.80;;;;;;5011439;28;20996;-71
2022/06/17 13:25:02;;;;;;;2.20;1.87;;;33.90;46.20;;;;;;5011231;28;20467;-74
2022/06/17 13:27:36;;;;;;;2.30;1.90;;;33.90;48.10;;;;;;5011575;28;20463;-74
2022/06/17 13:30:10;;;;;;;2.10;1.80;;;33.80;50.00;;;;;;5013030;28;20479;-74